createdAt,value
2019-05-19T05:03:15.263Z,16.47
2019-05-19T05:08:28.761Z,19.23
2019-05-19T05:13:20.998Z,15.13
2019-05-19T05:18:22.112Z,16.50
2019-05-19T05:23:22.999Z,17.93
2019-05-19T05:28:23.950Z,16.10
2019-05-19T05:33:24.857Z,18.67
2019-05-19T05:38:25.740Z,19.43
2019-05-19T05:43:26.612Z,19.20
2019-05-19T05:48:27.491Z,18.10
2019-05-19T05:53:28.373Z,18.47
2019-05-19T05:58:29.246Z,16.83
2019-05-19T06:03:30.128Z,18.23
2019-05-19T06:08:31.025Z,16.60
2019-05-19T06:13:31.871Z,19.77
2019-05-19T06:18:32.845Z,16.87
2019-05-19T06:23:33.845Z,17.60
2019-05-19T06:28:35.829Z,18.10
2019-05-19T06:33:37.389Z,17.20
2019-05-19T06:38:38.317Z,16.97
2019-05-19T06:43:40.695Z,15.27
2019-05-19T06:48:41.687Z,20.50
2019-05-19T06:53:43.827Z,20.13
2019-05-19T06:58:44.936Z,15.47
2019-05-19T07:03:46.492Z,15.10
2019-05-19T07:08:47.366Z,15.67
2019-05-19T07:13:48.257Z,17.63
2019-05-19T07:18:49.144Z,13.37
2019-05-19T07:23:50.008Z,10.70
2019-05-19T07:28:50.902Z,12.13
2019-05-19T07:33:51.777Z,12.97
2019-05-19T07:38:52.644Z,12.07
2019-05-19T07:43:53.510Z,14.43
2019-05-19T07:48:54.368Z,13.50
2019-05-19T07:53:55.240Z,15.40
2019-05-19T07:58:56.110Z,14.10
2019-05-19T08:03:57.085Z,12.80
2019-05-19T08:08:58.151Z,14.03
2019-05-19T08:13:59.528Z,10.63
2019-05-19T08:19:00.401Z,11.13
2019-05-19T08:24:01.417Z,13.10
2019-05-19T08:29:02.482Z,11.60
2019-05-19T08:34:03.502Z,13.07
2019-05-19T08:39:05.255Z,11.43
2019-05-19T08:44:06.228Z,12.23
2019-05-19T08:49:07.100Z,12.30
2019-05-19T08:54:15.056Z,10.27
2019-05-19T08:59:10.848Z,10.13
2019-05-19T09:04:11.716Z,10.50
2019-05-19T09:09:12.704Z,11.80
2019-05-19T09:14:13.760Z,10.77
2019-05-19T09:19:14.618Z,11.47
2019-05-19T09:24:29.546Z,8.33
2019-05-19T09:29:18.383Z,9.77
2019-05-19T09:34:19.259Z,7.67
2019-05-19T09:39:20.143Z,8.87
2019-05-19T09:44:21.012Z,6.43
2019-05-19T09:49:31.571Z,3.93
2019-05-19T09:54:44.178Z,4.90
2019-05-19T09:59:35.654Z,4.30
2019-05-19T10:04:36.496Z,5.50
2019-05-19T10:09:57.934Z,7.70
2019-05-19T10:14:59.010Z,5.03
2019-05-19T10:19:59.900Z,3.50
2019-05-19T10:25:20.329Z,4.87
2019-05-19T10:30:05.984Z,4.03
2019-05-19T10:35:06.949Z,3.57
2019-05-19T10:40:08.220Z,4.60
2019-05-19T10:45:10.495Z,3.97
2019-05-19T10:50:12.175Z,3.70
2019-05-19T10:55:13.164Z,6.27
2019-05-19T11:00:14.733Z,5.23
2019-05-19T11:05:15.608Z,4.43
2019-05-19T11:10:16.883Z,3.77
2019-05-19T11:15:18.023Z,5.10
2019-05-19T11:20:19.081Z,6.27
2019-05-19T11:25:32.975Z,8.43
2019-05-19T11:30:22.757Z,4.97
2019-05-19T11:35:23.619Z,4.90
2019-05-19T11:40:24.581Z,5.80
2019-05-19T11:45:25.571Z,4.93
2019-05-19T11:50:26.445Z,5.33
2019-05-19T11:55:27.315Z,3.13
2019-05-19T12:00:28.324Z,2.90
2019-05-19T12:05:29.302Z,4.33
2019-05-19T12:10:30.437Z,2.53
2019-05-19T12:15:31.324Z,2.97
2019-05-19T12:20:32.195Z,2.80
2019-05-19T12:25:33.160Z,4.00
2019-05-19T12:30:34.177Z,2.90
2019-05-19T12:35:35.030Z,2.83
2019-05-19T12:40:35.904Z,5.23
2019-05-19T12:45:36.861Z,4.73
2019-05-19T12:50:37.733Z,3.97
2019-05-19T12:55:38.807Z,3.37
2019-05-19T13:00:39.680Z,4.03
2019-05-19T13:05:40.555Z,6.10
2019-05-19T13:10:41.452Z,2.87
2019-05-19T13:15:42.333Z,3.13
2019-05-19T13:20:43.239Z,3.27
2019-05-19T13:25:44.108Z,3.43
2019-05-19T13:30:44.997Z,3.17
2019-05-19T13:35:45.855Z,5.10
2019-05-19T13:40:46.932Z,4.40
2019-05-19T13:45:47.815Z,6.53
2019-05-19T13:50:48.797Z,4.37
2019-05-19T13:55:49.648Z,4.20
2019-05-19T14:00:50.532Z,5.10
2019-05-19T14:05:51.415Z,4.23
2019-05-19T14:10:52.287Z,3.93
2019-05-19T14:15:53.167Z,6.27
2019-05-19T14:20:54.147Z,5.40
2019-05-19T14:25:55.234Z,5.20
2019-05-19T14:30:58.143Z,10.13
2019-05-19T14:36:00.480Z,7.90
2019-05-19T14:41:02.331Z,6.23
2019-05-19T14:46:04.765Z,7.00
2019-05-19T14:51:06.903Z,7.40
2019-05-19T14:56:08.984Z,7.23
2019-05-19T15:01:10.460Z,7.27
2019-05-19T15:06:12.888Z,6.87
2019-05-19T15:11:16.048Z,5.83
2019-05-19T15:16:17.697Z,6.23
2019-05-19T15:21:20.042Z,6.17
2019-05-19T15:26:22.003Z,7.40
2019-05-19T15:31:23.193Z,7.40
2019-05-19T15:36:24.089Z,7.67
2019-05-19T15:41:25.001Z,6.73
2019-05-19T15:46:25.881Z,6.87
2019-05-19T15:51:29.134Z,7.00
2019-05-19T15:56:29.535Z,6.70
2019-05-19T16:01:30.407Z,8.53
2019-05-19T16:06:31.294Z,6.67
2019-05-19T16:11:32.151Z,7.53
2019-05-19T16:16:33.116Z,5.43
2019-05-19T16:21:33.979Z,5.30
2019-05-19T16:26:34.846Z,7.43
2019-05-19T16:31:35.739Z,5.97
2019-05-19T16:36:36.616Z,6.27
2019-05-19T16:41:37.555Z,5.80
2019-05-19T16:46:38.480Z,5.80
2019-05-19T16:51:39.391Z,6.07
2019-05-19T16:56:40.264Z,6.60
2019-05-19T17:01:41.138Z,5.57
2019-05-19T17:06:42.114Z,6.40
2019-05-19T17:11:43.000Z,5.87
2019-05-19T17:16:43.883Z,6.10
2019-05-19T17:21:44.752Z,7.50
2019-05-19T17:26:47.620Z,6.33
2019-05-19T17:31:48.510Z,5.13
2019-05-19T17:36:50.952Z,9.37
2019-05-19T17:41:52.009Z,7.70
2019-05-19T17:46:52.884Z,5.50
2019-05-19T17:51:54.024Z,5.43
2019-05-19T17:56:56.441Z,5.40
2019-05-19T18:01:57.385Z,6.63
2019-05-19T18:06:58.263Z,5.63
2019-05-19T18:11:59.139Z,6.90
2019-05-19T18:17:00.011Z,5.53
2019-05-19T18:22:00.887Z,6.87
2019-05-19T18:27:01.775Z,6.80
2019-05-19T18:32:03.081Z,7.27
2019-05-19T18:37:04.006Z,5.60
2019-05-19T18:42:04.986Z,6.33
2019-05-19T18:47:05.886Z,5.77
2019-05-19T18:52:06.745Z,6.10
2019-05-19T18:57:07.699Z,5.17
2019-05-19T19:02:09.076Z,5.60
2019-05-19T19:07:10.195Z,5.37
2019-05-19T19:12:11.192Z,7.97
2019-05-19T19:17:12.085Z,5.80
2019-05-19T19:22:12.986Z,4.43
2019-05-19T19:27:13.886Z,4.73
2019-05-19T19:32:14.797Z,5.57
2019-05-19T19:37:15.674Z,6.17
2019-05-19T19:42:16.564Z,4.97
2019-05-19T19:47:17.432Z,7.10
2019-05-19T19:52:18.317Z,7.23
2019-05-19T19:57:19.200Z,7.70
2019-05-19T20:02:20.210Z,7.30
2019-05-19T20:07:21.111Z,7.70
2019-05-19T20:12:21.991Z,5.93
2019-05-19T20:17:22.861Z,7.77
